<?xml version='1.0' encoding='UTF-8'?>
<gpx xmlns="http://www.topografix.com/GPX/1/1" creator="www.balnam.be" version="1.1" xmlns:xsi="http://www.w3.org/2001/XMLSchema-instance" xsi:schemaLocation="http://www.topografix.com/GPX/1/1 http://www.topografix.com/GPX/1/1/gpx.xsd">
<trk>
<name>lhtvtLv820</name>
<cmt>r</cmt>
<desc>Vottem Chemin n°Lv820 Liaison RAVeL Ligne 31 - RAVeL 1 / Rue du Vicinal / Rue Vert Vinâve / Ravel</desc>
<link href="https://chemins.be/vottem/chemin/Lv820"/><trkseg>
<trkpt lat="50.681935" lon="5.588500"><time>2026-05-08T15:29:26Z</time></trkpt>
<trkpt lat="50.679552" lon="5.589552"><time>2026-05-08T15:39:26Z</time></trkpt>
</trkseg></trk>
<trk>
<name>lhtvtLv820</name>
<cmt>v</cmt>
<desc>Vottem Chemin n°Lv820 Liaison RAVeL Ligne 31 - RAVeL 1 / Rue du Vicinal / Rue Vert Vinâve / Ravel</desc>
<link href="https://chemins.be/vottem/chemin/Lv820"/><trkseg>
<trkpt lat="50.679552" lon="5.589552"><time>2026-05-08T15:39:26Z</time></trkpt>
<trkpt lat="50.678285" lon="5.590073"><time>2026-05-08T15:49:26Z</time></trkpt>
<trkpt lat="50.677798" lon="5.590035"><time>2026-05-08T15:59:26Z</time></trkpt>
</trkseg></trk>
<trk>
<name>lhtvtLv820</name>
<cmt>r</cmt>
<desc>Vottem Chemin n°Lv820 Liaison RAVeL Ligne 31 - RAVeL 1 / Rue du Vicinal / Rue Vert Vinâve / Ravel</desc>
<link href="https://chemins.be/vottem/chemin/Lv820"/><trkseg>
<trkpt lat="50.677798" lon="5.590035"><time>2026-05-08T15:59:26Z</time></trkpt>
<trkpt lat="50.677061" lon="5.589362"><time>2026-05-08T16:09:26Z</time></trkpt>
</trkseg></trk>
<trk>
<name>lhtvtLv820</name>
<cmt>v</cmt>
<desc>Vottem Chemin n°Lv820 Liaison RAVeL Ligne 31 - RAVeL 1 / Rue du Vicinal / Rue Vert Vinâve / Ravel</desc>
<link href="https://chemins.be/vottem/chemin/Lv820"/><trkseg>
<trkpt lat="50.677061" lon="5.589362"><time>2026-05-08T16:09:26Z</time></trkpt>
<trkpt lat="50.676964" lon="5.589204"><time>2026-05-08T16:19:26Z</time></trkpt>
<trkpt lat="50.676781" lon="5.588934"><time>2026-05-08T16:29:26Z</time></trkpt>
<trkpt lat="50.675535" lon="5.587427"><time>2026-05-08T16:39:26Z</time></trkpt>
<trkpt lat="50.674996" lon="5.586522"><time>2026-05-08T16:49:26Z</time></trkpt>
<trkpt lat="50.674836" lon="5.586319"><time>2026-05-08T16:59:26Z</time></trkpt>
<trkpt lat="50.674675" lon="5.586202"><time>2026-05-08T17:09:26Z</time></trkpt>
<trkpt lat="50.674308" lon="5.586051"><time>2026-05-08T17:19:26Z</time></trkpt>
<trkpt lat="50.674083" lon="5.586102"><time>2026-05-08T17:29:26Z</time></trkpt>
<trkpt lat="50.673884" lon="5.586224"><time>2026-05-08T17:39:26Z</time></trkpt>
<trkpt lat="50.673665" lon="5.586487"><time>2026-05-08T17:49:26Z</time></trkpt>
<trkpt lat="50.673583" lon="5.586614"><time>2026-05-08T17:59:26Z</time></trkpt>
<trkpt lat="50.673471" lon="5.587006"><time>2026-05-08T18:09:26Z</time></trkpt>
<trkpt lat="50.673442" lon="5.587217"><time>2026-05-08T18:19:26Z</time></trkpt>
<trkpt lat="50.673445" lon="5.587783"><time>2026-05-08T18:29:26Z</time></trkpt>
<trkpt lat="50.673501" lon="5.588450"><time>2026-05-08T18:39:26Z</time></trkpt>
<trkpt lat="50.673507" lon="5.588747"><time>2026-05-08T18:49:26Z</time></trkpt>
<trkpt lat="50.673477" lon="5.588987"><time>2026-05-08T18:59:26Z</time></trkpt>
<trkpt lat="50.673374" lon="5.589380"><time>2026-05-08T19:09:26Z</time></trkpt>
<trkpt lat="50.673200" lon="5.589715"><time>2026-05-08T19:19:26Z</time></trkpt>
<trkpt lat="50.673134" lon="5.589713"><time>2026-05-08T19:29:26Z</time></trkpt>
</trkseg></trk>
<trk>
<name>lhtvtLv820</name>
<cmt>r</cmt>
<desc>Vottem Chemin n°Lv820 Liaison RAVeL Ligne 31 - RAVeL 1 / Rue du Vicinal / Rue Vert Vinâve / Ravel</desc>
<link href="https://chemins.be/vottem/chemin/Lv820"/><trkseg>
<trkpt lat="50.673134" lon="5.589713"><time>2026-05-08T19:29:26Z</time></trkpt>
<trkpt lat="50.672955" lon="5.590142"><time>2026-05-08T19:39:26Z</time></trkpt>
<trkpt lat="50.672576" lon="5.590454"><time>2026-05-08T19:49:26Z</time></trkpt>
</trkseg></trk>
<trk>
<name>lhtvtLv820</name>
<cmt>v</cmt>
<desc>Vottem Chemin n°Lv820 Liaison RAVeL Ligne 31 - RAVeL 1 / Rue du Vicinal / Rue Vert Vinâve / Ravel</desc>
<link href="https://chemins.be/vottem/chemin/Lv820"/><trkseg>
<trkpt lat="50.672576" lon="5.590454"><time>2026-05-08T19:49:26Z</time></trkpt>
<trkpt lat="50.672049" lon="5.590876"><time>2026-05-08T19:59:26Z</time></trkpt>
</trkseg>
</trk>
</gpx>